sensor_id;sensor_type;location;lat;lon;timestamp;P1;durP1;ratioP1;P2;durP2;ratioP2
56161;SDS011;42045;52.986;6.014;2023-04-09T00:01:41;69.43;;;54.35;;
56161;SDS011;42045;52.986;6.014;2023-04-09T00:04:06;64.78;;;53.20;;
56161;SDS011;42045;52.986;6.014;2023-04-09T00:06:32;63.45;;;51.60;;
56161;SDS011;42045;52.986;6.014;2023-04-09T00:08:57;67.93;;;52.55;;
56161;SDS011;42045;52.986;6.014;2023-04-09T00:11:23;63.55;;;51.20;;
56161;SDS011;42045;52.986;6.014;2023-04-09T00:13:49;64.22;;;51.80;;
56161;SDS011;42045;52.986;6.014;2023-04-09T00:16:15;58.92;;;46.22;;
56161;SDS011;42045;52.986;6.014;2023-04-09T00:18:41;62.03;;;49.03;;
56161;SDS011;42045;52.986;6.014;2023-04-09T00:21:06;51.58;;;42.33;;
56161;SDS011;42045;52.986;6.014;2023-04-09T00:23:33;53.42;;;42.63;;
56161;SDS011;42045;52.986;6.014;2023-04-09T00:25:59;53.08;;;41.22;;
56161;SDS011;42045;52.986;6.014;2023-04-09T00:28:25;53.55;;;41.55;;
56161;SDS011;42045;52.986;6.014;2023-04-09T00:30:50;50.35;;;41.97;;
56161;SDS011;42045;52.986;6.014;2023-04-09T00:33:16;51.80;;;42.80;;
56161;SDS011;42045;52.986;6.014;2023-04-09T00:35:41;48.35;;;41.15;;
56161;SDS011;42045;52.986;6.014;2023-04-09T00:38:07;49.80;;;42.40;;
56161;SDS011;42045;52.986;6.014;2023-04-09T00:40:33;55.88;;;44.55;;
56161;SDS011;42045;52.986;6.014;2023-04-09T00:42:59;59.70;;;45.30;;
56161;SDS011;42045;52.986;6.014;2023-04-09T00:45:25;53.15;;;44.03;;
56161;SDS011;42045;52.986;6.014;2023-04-09T00:47:51;57.33;;;43.90;;
56161;SDS011;42045;52.986;6.014;2023-04-09T00:50:17;55.53;;;45.63;;
56161;SDS011;42045;52.986;6.014;2023-04-09T00:52:43;55.55;;;43.97;;
56161;SDS011;42045;52.986;6.014;2023-04-09T00:55:09;59.00;;;46.03;;
56161;SDS011;42045;52.986;6.014;2023-04-09T00:57:36;62.90;;;47.85;;
56161;SDS011;42045;52.986;6.014;2023-04-09T01:00:02;65.80;;;50.20;;
56161;SDS011;42045;52.986;6.014;2023-04-09T01:02:28;64.03;;;48.22;;
56161;SDS011;42045;52.986;6.014;2023-04-09T01:04:55;65.72;;;48.88;;
56161;SDS011;42045;52.986;6.014;2023-04-09T01:12:56;71.22;;;51.40;;
56161;SDS011;42045;52.986;6.014;2023-04-09T01:15:33;72.25;;;52.72;;
56161;SDS011;42045;52.986;6.014;2023-04-09T01:25:54;71.85;;;50.83;;
56161;SDS011;42045;52.986;6.014;2023-04-09T01:28:44;71.18;;;54.53;;
56161;SDS011;42045;52.986;6.014;2023-04-09T01:31:14;76.10;;;53.28;;
56161;SDS011;42045;52.986;6.014;2023-04-09T01:33:42;78.80;;;58.03;;
56161;SDS011;42045;52.986;6.014;2023-04-09T01:36:09;88.68;;;62.72;;
56161;SDS011;42045;52.986;6.014;2023-04-09T01:38:35;88.20;;;61.17;;
56161;SDS011;42045;52.986;6.014;2023-04-09T01:41:03;91.45;;;62.47;;
56161;SDS011;42045;52.986;6.014;2023-04-09T01:43:31;90.43;;;62.20;;
56161;SDS011;42045;52.986;6.014;2023-04-09T01:45:59;91.57;;;60.58;;
56161;SDS011;42045;52.986;6.014;2023-04-09T01:48:26;90.15;;;59.08;;
56161;SDS011;42045;52.986;6.014;2023-04-09T01:50:55;89.28;;;59.35;;
56161;SDS011;42045;52.986;6.014;2023-04-09T01:53:22;88.30;;;57.53;;
56161;SDS011;42045;52.986;6.014;2023-04-09T01:55:48;84.82;;;58.65;;
56161;SDS011;42045;52.986;6.014;2023-04-09T01:58:13;86.93;;;59.28;;
56161;SDS011;42045;52.986;6.014;2023-04-09T02:00:43;86.57;;;58.20;;
56161;SDS011;42045;52.986;6.014;2023-04-09T02:03:21;81.57;;;56.15;;
56161;SDS011;42045;52.986;6.014;2023-04-09T02:05:55;80.82;;;55.40;;
56161;SDS011;42045;52.986;6.014;2023-04-09T02:08:29;83.47;;;55.13;;
56161;SDS011;42045;52.986;6.014;2023-04-09T02:10:58;78.13;;;54.00;;
56161;SDS011;42045;52.986;6.014;2023-04-09T02:13:27;84.28;;;55.97;;
56161;SDS011;42045;52.986;6.014;2023-04-09T02:15:57;78.88;;;53.30;;
56161;SDS011;42045;52.986;6.014;2023-04-09T02:18:26;75.97;;;51.70;;
56161;SDS011;42045;52.986;6.014;2023-04-09T02:20:54;77.68;;;51.53;;
56161;SDS011;42045;52.986;6.014;2023-04-09T02:23:21;75.70;;;53.67;;
56161;SDS011;42045;52.986;6.014;2023-04-09T02:25:47;73.15;;;49.35;;
56161;SDS011;42045;52.986;6.014;2023-04-09T02:28:13;78.88;;;51.63;;
56161;SDS011;42045;52.986;6.014;2023-04-09T02:30:38;74.97;;;49.05;;
56161;SDS011;42045;52.986;6.014;2023-04-09T02:33:04;72.28;;;50.03;;
56161;SDS011;42045;52.986;6.014;2023-04-09T02:35:30;71.45;;;50.33;;
56161;SDS011;42045;52.986;6.014;2023-04-09T02:37:56;71.30;;;47.63;;
56161;SDS011;42045;52.986;6.014;2023-04-09T02:40:22;73.93;;;49.08;;
56161;SDS011;42045;52.986;6.014;2023-04-09T02:42:47;85.18;;;54.55;;
56161;SDS011;42045;52.986;6.014;2023-04-09T02:45:14;69.45;;;48.40;;
56161;SDS011;42045;52.986;6.014;2023-04-09T02:47:40;79.13;;;52.60;;
56161;SDS011;42045;52.986;6.014;2023-04-09T02:50:06;73.18;;;49.08;;
56161;SDS011;42045;52.986;6.014;2023-04-09T02:52:32;81.35;;;51.15;;
56161;SDS011;42045;52.986;6.014;2023-04-09T02:54:57;75.20;;;49.45;;
56161;SDS011;42045;52.986;6.014;2023-04-09T02:57:23;78.53;;;51.13;;
56161;SDS011;42045;52.986;6.014;2023-04-09T02:59:49;74.30;;;49.33;;
56161;SDS011;42045;52.986;6.014;2023-04-09T03:02:14;81.20;;;53.47;;
56161;SDS011;42045;52.986;6.014;2023-04-09T03:04:40;78.20;;;50.70;;
56161;SDS011;42045;52.986;6.014;2023-04-09T03:07:06;78.05;;;51.88;;
56161;SDS011;42045;52.986;6.014;2023-04-09T03:09:31;81.05;;;51.20;;
56161;SDS011;42045;52.986;6.014;2023-04-09T03:11:57;76.40;;;48.40;;
56161;SDS011;42045;52.986;6.014;2023-04-09T03:14:23;73.32;;;49.30;;
56161;SDS011;42045;52.986;6.014;2023-04-09T03:16:49;75.72;;;49.22;;
56161;SDS011;42045;52.986;6.014;2023-04-09T03:19:14;80.45;;;53.20;;
56161;SDS011;42045;52.986;6.014;2023-04-09T03:21:40;70.20;;;47.08;;
56161;SDS011;42045;52.986;6.014;2023-04-09T03:24:06;70.07;;;47.08;;
56161;SDS011;42045;52.986;6.014;2023-04-09T03:26:32;71.10;;;46.20;;
56161;SDS011;42045;52.986;6.014;2023-04-09T03:29:03;69.70;;;46.33;;
56161;SDS011;42045;52.986;6.014;2023-04-09T03:31:30;75.75;;;48.10;;
56161;SDS011;42045;52.986;6.014;2023-04-09T03:33:56;76.75;;;48.15;;
56161;SDS011;42045;52.986;6.014;2023-04-09T03:36:21;75.60;;;47.83;;
56161;SDS011;42045;52.986;6.014;2023-04-09T03:38:47;73.00;;;46.80;;
56161;SDS011;42045;52.986;6.014;2023-04-09T03:41:13;71.63;;;47.28;;
56161;SDS011;42045;52.986;6.014;2023-04-09T03:43:39;76.90;;;47.10;;
56161;SDS011;42045;52.986;6.014;2023-04-09T03:46:11;70.03;;;45.63;;
56161;SDS011;42045;52.986;6.014;2023-04-09T03:48:40;67.88;;;45.63;;
56161;SDS011;42045;52.986;6.014;2023-04-09T03:51:07;65.50;;;42.83;;
56161;SDS011;42045;52.986;6.014;2023-04-09T03:53:37;57.60;;;38.45;;
56161;SDS011;42045;52.986;6.014;2023-04-09T03:56:02;54.60;;;37.67;;
56161;SDS011;42045;52.986;6.014;2023-04-09T03:58:28;61.22;;;37.88;;
56161;SDS011;42045;52.986;6.014;2023-04-09T04:00:54;59.75;;;39.20;;
56161;SDS011;42045;52.986;6.014;2023-04-09T04:03:20;63.33;;;39.08;;
56161;SDS011;42045;52.986;6.014;2023-04-09T04:05:45;64.45;;;41.72;;
56161;SDS011;42045;52.986;6.014;2023-04-09T04:08:11;62.30;;;40.55;;
56161;SDS011;42045;52.986;6.014;2023-04-09T04:10:36;57.22;;;38.15;;
56161;SDS011;42045;52.986;6.014;2023-04-09T04:13:02;59.17;;;38.67;;
56161;SDS011;42045;52.986;6.014;2023-04-09T04:15:30;60.80;;;39.38;;
56161;SDS011;42045;52.986;6.014;2023-04-09T04:17:55;55.22;;;37.65;;
56161;SDS011;42045;52.986;6.014;2023-04-09T04:20:21;58.65;;;39.45;;
56161;SDS011;42045;52.986;6.014;2023-04-09T04:22:47;64.88;;;39.65;;
56161;SDS011;42045;52.986;6.014;2023-04-09T04:25:12;63.55;;;40.60;;
56161;SDS011;42045;52.986;6.014;2023-04-09T04:27:41;68.00;;;41.60;;
56161;SDS011;42045;52.986;6.014;2023-04-09T04:30:07;62.85;;;43.25;;
56161;SDS011;42045;52.986;6.014;2023-04-09T04:32:33;62.20;;;42.63;;
56161;SDS011;42045;52.986;6.014;2023-04-09T04:34:59;60.90;;;41.10;;
56161;SDS011;42045;52.986;6.014;2023-04-09T04:37:24;60.80;;;40.88;;
56161;SDS011;42045;52.986;6.014;2023-04-09T04:39:50;63.22;;;41.78;;
56161;SDS011;42045;52.986;6.014;2023-04-09T04:42:16;60.95;;;39.92;;
56161;SDS011;42045;52.986;6.014;2023-04-09T04:44:42;64.97;;;40.75;;
56161;SDS011;42045;52.986;6.014;2023-04-09T04:47:08;58.70;;;40.88;;
56161;SDS011;42045;52.986;6.014;2023-04-09T04:49:34;58.70;;;40.10;;
56161;SDS011;42045;52.986;6.014;2023-04-09T04:52:00;64.53;;;40.53;;
56161;SDS011;42045;52.986;6.014;2023-04-09T04:54:25;53.20;;;39.03;;
56161;SDS011;42045;52.986;6.014;2023-04-09T04:56:51;60.22;;;40.40;;
56161;SDS011;42045;52.986;6.014;2023-04-09T04:59:17;58.65;;;39.90;;
56161;SDS011;42045;52.986;6.014;2023-04-09T05:01:42;55.85;;;37.67;;
56161;SDS011;42045;52.986;6.014;2023-04-09T05:04:08;55.80;;;38.92;;
56161;SDS011;42045;52.986;6.014;2023-04-09T05:06:33;57.40;;;38.63;;
56161;SDS011;42045;52.986;6.014;2023-04-09T05:08:59;55.47;;;38.75;;
56161;SDS011;42045;52.986;6.014;2023-04-09T05:11:25;50.55;;;36.45;;
56161;SDS011;42045;52.986;6.014;2023-04-09T05:13:52;50.90;;;35.88;;
56161;SDS011;42045;52.986;6.014;2023-04-09T05:16:18;50.58;;;36.15;;
56161;SDS011;42045;52.986;6.014;2023-04-09T05:18:45;52.83;;;36.75;;
56161;SDS011;42045;52.986;6.014;2023-04-09T05:21:11;53.88;;;36.63;;
56161;SDS011;42045;52.986;6.014;2023-04-09T05:23:37;56.80;;;36.90;;
56161;SDS011;42045;52.986;6.014;2023-04-09T05:26:02;56.78;;;37.20;;
56161;SDS011;42045;52.986;6.014;2023-04-09T05:28:28;48.92;;;36.78;;
56161;SDS011;42045;52.986;6.014;2023-04-09T05:30:54;47.03;;;36.00;;
56161;SDS011;42045;52.986;6.014;2023-04-09T05:33:19;45.22;;;35.25;;
56161;SDS011;42045;52.986;6.014;2023-04-09T05:35:45;51.10;;;36.75;;
56161;SDS011;42045;52.986;6.014;2023-04-09T05:38:11;55.08;;;36.03;;
56161;SDS011;42045;52.986;6.014;2023-04-09T05:40:37;50.15;;;37.10;;
56161;SDS011;42045;52.986;6.014;2023-04-09T05:43:03;52.92;;;37.15;;
56161;SDS011;42045;52.986;6.014;2023-04-09T05:45:30;47.45;;;35.03;;
56161;SDS011;42045;52.986;6.014;2023-04-09T05:47:55;50.42;;;34.45;;
56161;SDS011;42045;52.986;6.014;2023-04-09T05:50:21;50.25;;;37.03;;
56161;SDS011;42045;52.986;6.014;2023-04-09T05:52:47;48.10;;;36.65;;
56161;SDS011;42045;52.986;6.014;2023-04-09T05:55:12;50.35;;;36.05;;
56161;SDS011;42045;52.986;6.014;2023-04-09T05:57:38;48.25;;;34.65;;
56161;SDS011;42045;52.986;6.014;2023-04-09T06:00:04;50.42;;;36.22;;
56161;SDS011;42045;52.986;6.014;2023-04-09T06:02:30;42.60;;;33.45;;
56161;SDS011;42045;52.986;6.014;2023-04-09T06:04:56;46.38;;;33.00;;
56161;SDS011;42045;52.986;6.014;2023-04-09T06:07:21;56.53;;;38.10;;
56161;SDS011;42045;52.986;6.014;2023-04-09T06:09:47;52.05;;;35.78;;
56161;SDS011;42045;52.986;6.014;2023-04-09T06:12:13;48.15;;;35.40;;
56161;SDS011;42045;52.986;6.014;2023-04-09T06:14:39;49.75;;;36.30;;
56161;SDS011;42045;52.986;6.014;2023-04-09T06:17:05;48.83;;;37.08;;
56161;SDS011;42045;52.986;6.014;2023-04-09T06:19:31;48.10;;;35.38;;
56161;SDS011;42045;52.986;6.014;2023-04-09T06:21:57;47.42;;;35.10;;
56161;SDS011;42045;52.986;6.014;2023-04-09T06:24:22;47.92;;;35.60;;
56161;SDS011;42045;52.986;6.014;2023-04-09T06:26:48;48.50;;;36.22;;
56161;SDS011;42045;52.986;6.014;2023-04-09T06:29:14;50.33;;;36.15;;
56161;SDS011;42045;52.986;6.014;2023-04-09T06:31:40;48.40;;;36.38;;
56161;SDS011;42045;52.986;6.014;2023-04-09T06:34:06;51.67;;;38.25;;
56161;SDS011;42045;52.986;6.014;2023-04-09T06:36:32;48.75;;;37.72;;
56161;SDS011;42045;52.986;6.014;2023-04-09T06:38:57;47.47;;;36.50;;
56161;SDS011;42045;52.986;6.014;2023-04-09T06:41:23;50.60;;;36.40;;
56161;SDS011;42045;52.986;6.014;2023-04-09T06:43:50;50.03;;;36.55;;
56161;SDS011;42045;52.986;6.014;2023-04-09T06:46:16;54.47;;;36.92;;
56161;SDS011;42045;52.986;6.014;2023-04-09T06:48:44;50.85;;;37.05;;
56161;SDS011;42045;52.986;6.014;2023-04-09T06:51:10;53.92;;;36.22;;
56161;SDS011;42045;52.986;6.014;2023-04-09T06:53:37;52.17;;;37.00;;
56161;SDS011;42045;52.986;6.014;2023-04-09T06:56:03;56.33;;;37.22;;
56161;SDS011;42045;52.986;6.014;2023-04-09T06:58:29;50.58;;;37.60;;
56161;SDS011;42045;52.986;6.014;2023-04-09T07:00:54;55.53;;;37.55;;
56161;SDS011;42045;52.986;6.014;2023-04-09T07:03:20;51.83;;;37.22;;
56161;SDS011;42045;52.986;6.014;2023-04-09T07:05:46;51.15;;;37.92;;
56161;SDS011;42045;52.986;6.014;2023-04-09T07:08:12;49.35;;;35.60;;
56161;SDS011;42045;52.986;6.014;2023-04-09T07:10:38;54.55;;;37.90;;
56161;SDS011;42045;52.986;6.014;2023-04-09T07:13:04;56.60;;;39.65;;
56161;SDS011;42045;52.986;6.014;2023-04-09T07:15:29;53.65;;;38.05;;
56161;SDS011;42045;52.986;6.014;2023-04-09T07:17:55;51.13;;;37.30;;
56161;SDS011;42045;52.986;6.014;2023-04-09T07:20:21;55.38;;;39.15;;
56161;SDS011;42045;52.986;6.014;2023-04-09T07:22:47;50.65;;;36.03;;
56161;SDS011;42045;52.986;6.014;2023-04-09T07:25:13;56.30;;;39.05;;
56161;SDS011;42045;52.986;6.014;2023-04-09T07:27:40;53.97;;;39.72;;
56161;SDS011;42045;52.986;6.014;2023-04-09T07:30:07;56.65;;;39.30;;
56161;SDS011;42045;52.986;6.014;2023-04-09T07:32:35;58.05;;;39.00;;
56161;SDS011;42045;52.986;6.014;2023-04-09T07:35:02;51.17;;;37.97;;
56161;SDS011;42045;52.986;6.014;2023-04-09T07:37:29;58.70;;;40.03;;
56161;SDS011;42045;52.986;6.014;2023-04-09T07:39:55;54.30;;;37.75;;
56161;SDS011;42045;52.986;6.014;2023-04-09T07:42:20;55.53;;;38.22;;
56161;SDS011;42045;52.986;6.014;2023-04-09T07:44:46;55.15;;;40.65;;
56161;SDS011;42045;52.986;6.014;2023-04-09T07:47:12;54.92;;;38.92;;
56161;SDS011;42045;52.986;6.014;2023-04-09T07:49:38;57.05;;;39.17;;
56161;SDS011;42045;52.986;6.014;2023-04-09T07:52:04;53.35;;;39.42;;
56161;SDS011;42045;52.986;6.014;2023-04-09T07:54:31;52.30;;;39.60;;
56161;SDS011;42045;52.986;6.014;2023-04-09T07:56:58;50.58;;;37.97;;
56161;SDS011;42045;52.986;6.014;2023-04-09T07:59:24;55.72;;;40.33;;
56161;SDS011;42045;52.986;6.014;2023-04-09T08:01:51;50.75;;;38.75;;
56161;SDS011;42045;52.986;6.014;2023-04-09T08:04:17;58.10;;;40.38;;
56161;SDS011;42045;52.986;6.014;2023-04-09T08:06:43;55.30;;;39.90;;
56161;SDS011;42045;52.986;6.014;2023-04-09T08:09:14;53.42;;;39.13;;
56161;SDS011;42045;52.986;6.014;2023-04-09T08:11:40;53.80;;;39.67;;
56161;SDS011;42045;52.986;6.014;2023-04-09T08:14:06;58.03;;;41.95;;
56161;SDS011;42045;52.986;6.014;2023-04-09T08:16:33;52.58;;;40.25;;
56161;SDS011;42045;52.986;6.014;2023-04-09T08:18:58;53.80;;;39.25;;
56161;SDS011;42045;52.986;6.014;2023-04-09T08:21:24;55.72;;;41.05;;
56161;SDS011;42045;52.986;6.014;2023-04-09T08:23:50;52.10;;;38.92;;
56161;SDS011;42045;52.986;6.014;2023-04-09T08:26:16;53.42;;;39.22;;
56161;SDS011;42045;52.986;6.014;2023-04-09T08:28:42;55.05;;;39.67;;
56161;SDS011;42045;52.986;6.014;2023-04-09T08:31:08;55.78;;;39.30;;
56161;SDS011;42045;52.986;6.014;2023-04-09T08:33:33;50.33;;;37.58;;
56161;SDS011;42045;52.986;6.014;2023-04-09T08:35:59;50.35;;;37.70;;
56161;SDS011;42045;52.986;6.014;2023-04-09T08:38:25;56.05;;;40.47;;
56161;SDS011;42045;52.986;6.014;2023-04-09T08:40:51;51.80;;;38.50;;
56161;SDS011;42045;52.986;6.014;2023-04-09T08:43:16;51.03;;;38.60;;
56161;SDS011;42045;52.986;6.014;2023-04-09T08:45:46;50.08;;;38.03;;
56161;SDS011;42045;52.986;6.014;2023-04-09T08:48:12;49.28;;;36.75;;
56161;SDS011;42045;52.986;6.014;2023-04-09T08:50:38;47.08;;;36.40;;
56161;SDS011;42045;52.986;6.014;2023-04-09T08:53:04;48.53;;;36.22;;
56161;SDS011;42045;52.986;6.014;2023-04-09T08:55:32;46.45;;;35.90;;
56161;SDS011;42045;52.986;6.014;2023-04-09T08:58:05;50.55;;;36.67;;
56161;SDS011;42045;52.986;6.014;2023-04-09T09:03:01;46.03;;;35.50;;
56161;SDS011;42045;52.986;6.014;2023-04-09T09:05:37;44.72;;;34.33;;
56161;SDS011;42045;52.986;6.014;2023-04-09T09:08:08;43.50;;;32.17;;
56161;SDS011;42045;52.986;6.014;2023-04-09T09:10:38;45.83;;;35.38;;
56161;SDS011;42045;52.986;6.014;2023-04-09T09:13:15;43.35;;;33.25;;
56161;SDS011;42045;52.986;6.014;2023-04-09T09:15:44;43.83;;;34.72;;
56161;SDS011;42045;52.986;6.014;2023-04-09T09:18:11;45.55;;;36.13;;
56161;SDS011;42045;52.986;6.014;2023-04-09T09:20:37;45.65;;;33.90;;
56161;SDS011;42045;52.986;6.014;2023-04-09T09:23:03;46.13;;;34.45;;
56161;SDS011;42045;52.986;6.014;2023-04-09T09:25:29;44.00;;;34.05;;
56161;SDS011;42045;52.986;6.014;2023-04-09T09:28:08;49.58;;;36.05;;
56161;SDS011;42045;52.986;6.014;2023-04-09T09:30:35;44.97;;;35.13;;
56161;SDS011;42045;52.986;6.014;2023-04-09T09:33:04;45.33;;;34.95;;
56161;SDS011;42045;52.986;6.014;2023-04-09T09:38:15;40.20;;;33.55;;
56161;SDS011;42045;52.986;6.014;2023-04-09T09:40:42;43.15;;;35.97;;
56161;SDS011;42045;52.986;6.014;2023-04-09T09:43:08;49.40;;;36.58;;
56161;SDS011;42045;52.986;6.014;2023-04-09T09:45:35;43.60;;;35.15;;
56161;SDS011;42045;52.986;6.014;2023-04-09T09:48:00;44.97;;;34.33;;
56161;SDS011;42045;52.986;6.014;2023-04-09T09:50:28;43.33;;;35.08;;
56161;SDS011;42045;52.986;6.014;2023-04-09T09:52:58;42.88;;;35.08;;
56161;SDS011;42045;52.986;6.014;2023-04-09T09:55:29;46.08;;;34.75;;
56161;SDS011;42045;52.986;6.014;2023-04-09T09:57:56;42.17;;;33.92;;
56161;SDS011;42045;52.986;6.014;2023-04-09T10:00:25;41.00;;;33.67;;
56161;SDS011;42045;52.986;6.014;2023-04-09T10:02:56;43.10;;;35.25;;
56161;SDS011;42045;52.986;6.014;2023-04-09T10:05:25;39.60;;;32.15;;
56161;SDS011;42045;52.986;6.014;2023-04-09T10:08:00;39.75;;;32.53;;
56161;SDS011;42045;52.986;6.014;2023-04-09T10:10:28;40.17;;;31.55;;
56161;SDS011;42045;52.986;6.014;2023-04-09T10:12:55;43.03;;;33.72;;
56161;SDS011;42045;52.986;6.014;2023-04-09T10:15:22;40.80;;;32.95;;
56161;SDS011;42045;52.986;6.014;2023-04-09T10:17:48;38.28;;;32.10;;
56161;SDS011;42045;52.986;6.014;2023-04-09T10:20:15;40.78;;;32.42;;
56161;SDS011;42045;52.986;6.014;2023-04-09T10:22:47;38.80;;;33.77;;
56161;SDS011;42045;52.986;6.014;2023-04-09T10:25:15;39.75;;;32.33;;
56161;SDS011;42045;52.986;6.014;2023-04-09T10:27:42;40.00;;;32.70;;
56161;SDS011;42045;52.986;6.014;2023-04-09T10:33:21;35.08;;;30.38;;
56161;SDS011;42045;52.986;6.014;2023-04-09T10:35:51;38.55;;;32.17;;
56161;SDS011;42045;52.986;6.014;2023-04-09T10:38:31;37.92;;;32.22;;
56161;SDS011;42045;52.986;6.014;2023-04-09T10:41:05;34.28;;;30.45;;
56161;SDS011;42045;52.986;6.014;2023-04-09T10:43:49;32.83;;;28.88;;
56161;SDS011;42045;52.986;6.014;2023-04-09T10:46:27;34.63;;;30.83;;
56161;SDS011;42045;52.986;6.014;2023-04-09T10:49:06;35.97;;;31.15;;
56161;SDS011;42045;52.986;6.014;2023-04-09T10:51:35;34.28;;;30.58;;
56161;SDS011;42045;52.986;6.014;2023-04-09T10:54:05;33.60;;;29.23;;
56161;SDS011;42045;52.986;6.014;2023-04-09T10:59:33;36.13;;;31.92;;
56161;SDS011;42045;52.986;6.014;2023-04-09T11:02:08;34.92;;;30.50;;
56161;SDS011;42045;52.986;6.014;2023-04-09T11:07:44;34.00;;;30.30;;
56161;SDS011;42045;52.986;6.014;2023-04-09T11:10:15;34.60;;;30.40;;
56161;SDS011;42045;52.986;6.014;2023-04-09T11:12:41;32.90;;;27.77;;
56161;SDS011;42045;52.986;6.014;2023-04-09T11:15:14;33.35;;;29.48;;
56161;SDS011;42045;52.986;6.014;2023-04-09T11:17:41;33.25;;;29.15;;
56161;SDS011;42045;52.986;6.014;2023-04-09T11:20:07;32.47;;;28.63;;
56161;SDS011;42045;52.986;6.014;2023-04-09T11:22:34;31.70;;;28.33;;
56161;SDS011;42045;52.986;6.014;2023-04-09T11:25:00;30.52;;;27.23;;
56161;SDS011;42045;52.986;6.014;2023-04-09T11:27:27;32.67;;;29.10;;
56161;SDS011;42045;52.986;6.014;2023-04-09T11:29:55;31.60;;;28.20;;
56161;SDS011;42045;52.986;6.014;2023-04-09T11:32:21;31.38;;;27.85;;
56161;SDS011;42045;52.986;6.014;2023-04-09T11:34:46;31.17;;;27.92;;
56161;SDS011;42045;52.986;6.014;2023-04-09T11:37:15;33.55;;;29.95;;
56161;SDS011;42045;52.986;6.014;2023-04-09T11:39:43;35.58;;;29.15;;
56161;SDS011;42045;52.986;6.014;2023-04-09T11:42:13;30.23;;;26.98;;
56161;SDS011;42045;52.986;6.014;2023-04-09T11:44:39;30.30;;;27.02;;
56161;SDS011;42045;52.986;6.014;2023-04-09T11:47:05;30.52;;;26.55;;
56161;SDS011;42045;52.986;6.014;2023-04-09T11:49:35;29.90;;;26.05;;
56161;SDS011;42045;52.986;6.014;2023-04-09T11:52:01;29.25;;;25.50;;
56161;SDS011;42045;52.986;6.014;2023-04-09T11:54:31;28.08;;;25.08;;
56161;SDS011;42045;52.986;6.014;2023-04-09T11:56:58;31.50;;;26.50;;
56161;SDS011;42045;52.986;6.014;2023-04-09T11:59:24;27.98;;;24.95;;
56161;SDS011;42045;52.986;6.014;2023-04-09T12:01:50;30.52;;;26.42;;
56161;SDS011;42045;52.986;6.014;2023-04-09T12:04:19;39.08;;;30.08;;
56161;SDS011;42045;52.986;6.014;2023-04-09T12:06:45;29.10;;;26.00;;
56161;SDS011;42045;52.986;6.014;2023-04-09T12:09:12;26.98;;;24.17;;
56161;SDS011;42045;52.986;6.014;2023-04-09T12:11:38;27.52;;;24.58;;
56161;SDS011;42045;52.986;6.014;2023-04-09T12:14:11;28.63;;;23.40;;
56161;SDS011;42045;52.986;6.014;2023-04-09T12:16:42;28.27;;;25.20;;
56161;SDS011;42045;52.986;6.014;2023-04-09T12:19:09;28.40;;;24.92;;
56161;SDS011;42045;52.986;6.014;2023-04-09T12:24:18;28.17;;;25.08;;
56161;SDS011;42045;52.986;6.014;2023-04-09T12:26:45;27.27;;;24.42;;
56161;SDS011;42045;52.986;6.014;2023-04-09T12:29:13;28.15;;;24.83;;
56161;SDS011;42045;52.986;6.014;2023-04-09T12:31:40;28.27;;;25.27;;
56161;SDS011;42045;52.986;6.014;2023-04-09T12:34:06;28.63;;;25.52;;
56161;SDS011;42045;52.986;6.014;2023-04-09T12:36:32;28.23;;;25.13;;
56161;SDS011;42045;52.986;6.014;2023-04-09T12:38:57;28.13;;;25.13;;
56161;SDS011;42045;52.986;6.014;2023-04-09T12:41:23;26.88;;;24.02;;
56161;SDS011;42045;52.986;6.014;2023-04-09T12:43:49;26.73;;;23.95;;
56161;SDS011;42045;52.986;6.014;2023-04-09T12:46:16;27.83;;;24.15;;
56161;SDS011;42045;52.986;6.014;2023-04-09T12:48:43;28.20;;;24.23;;
56161;SDS011;42045;52.986;6.014;2023-04-09T12:51:08;26.35;;;23.50;;
56161;SDS011;42045;52.986;6.014;2023-04-09T12:53:35;27.27;;;23.73;;
56161;SDS011;42045;52.986;6.014;2023-04-09T12:56:01;27.65;;;24.70;;
56161;SDS011;42045;52.986;6.014;2023-04-09T12:58:27;28.73;;;25.63;;
56161;SDS011;42045;52.986;6.014;2023-04-09T13:00:53;28.83;;;23.30;;
56161;SDS011;42045;52.986;6.014;2023-04-09T13:03:20;26.30;;;23.48;;
56161;SDS011;42045;52.986;6.014;2023-04-09T13:05:47;29.02;;;26.02;;
56161;SDS011;42045;52.986;6.014;2023-04-09T13:08:13;25.50;;;22.80;;
56161;SDS011;42045;52.986;6.014;2023-04-09T13:10:39;26.73;;;23.85;;
56161;SDS011;42045;52.986;6.014;2023-04-09T13:13:05;28.65;;;25.45;;
56161;SDS011;42045;52.986;6.014;2023-04-09T13:15:36;25.45;;;22.85;;
56161;SDS011;42045;52.986;6.014;2023-04-09T13:18:02;26.88;;;23.98;;
56161;SDS011;42045;52.986;6.014;2023-04-09T13:20:27;27.05;;;24.17;;
56161;SDS011;42045;52.986;6.014;2023-04-09T13:22:54;24.67;;;22.10;;
56161;SDS011;42045;52.986;6.014;2023-04-09T13:25:20;25.83;;;22.67;;
56161;SDS011;42045;52.986;6.014;2023-04-09T13:27:46;25.98;;;22.98;;
56161;SDS011;42045;52.986;6.014;2023-04-09T13:30:12;26.38;;;23.58;;
56161;SDS011;42045;52.986;6.014;2023-04-09T13:32:37;26.25;;;23.40;;
56161;SDS011;42045;52.986;6.014;2023-04-09T13:35:04;25.90;;;22.55;;
56161;SDS011;42045;52.986;6.014;2023-04-09T13:37:30;25.88;;;22.58;;
56161;SDS011;42045;52.986;6.014;2023-04-09T13:39:56;24.73;;;22.05;;
56161;SDS011;42045;52.986;6.014;2023-04-09T13:42:21;24.95;;;22.25;;
56161;SDS011;42045;52.986;6.014;2023-04-09T13:44:47;24.65;;;21.95;;
56161;SDS011;42045;52.986;6.014;2023-04-09T13:47:13;23.27;;;20.88;;
56161;SDS011;42045;52.986;6.014;2023-04-09T13:49:41;25.70;;;22.52;;
56161;SDS011;42045;52.986;6.014;2023-04-09T13:52:07;24.67;;;22.08;;
56161;SDS011;42045;52.986;6.014;2023-04-09T13:54:33;23.75;;;21.30;;
56161;SDS011;42045;52.986;6.014;2023-04-09T13:56:59;25.60;;;21.70;;
56161;SDS011;42045;52.986;6.014;2023-04-09T13:59:25;23.42;;;20.63;;
56161;SDS011;42045;52.986;6.014;2023-04-09T14:01:51;24.17;;;21.67;;
56161;SDS011;42045;52.986;6.014;2023-04-09T14:04:17;22.02;;;19.63;;
56161;SDS011;42045;52.986;6.014;2023-04-09T14:06:43;24.35;;;20.75;;
56161;SDS011;42045;52.986;6.014;2023-04-09T14:09:10;23.58;;;19.88;;
56161;SDS011;42045;52.986;6.014;2023-04-09T14:11:36;21.98;;;19.33;;
56161;SDS011;42045;52.986;6.014;2023-04-09T14:14:01;23.60;;;20.95;;
56161;SDS011;42045;52.986;6.014;2023-04-09T14:16:27;20.90;;;18.65;;
56161;SDS011;42045;52.986;6.014;2023-04-09T14:18:54;22.75;;;20.35;;
56161;SDS011;42045;52.986;6.014;2023-04-09T14:21:20;21.80;;;19.25;;
56161;SDS011;42045;52.986;6.014;2023-04-09T14:23:46;19.90;;;17.80;;
56161;SDS011;42045;52.986;6.014;2023-04-09T14:26:12;20.70;;;18.50;;
56161;SDS011;42045;52.986;6.014;2023-04-09T14:28:38;20.27;;;17.85;;
56161;SDS011;42045;52.986;6.014;2023-04-09T14:31:04;21.15;;;18.95;;
56161;SDS011;42045;52.986;6.014;2023-04-09T14:33:30;20.88;;;17.90;;
56161;SDS011;42045;52.986;6.014;2023-04-09T14:35:56;20.60;;;18.02;;
56161;SDS011;42045;52.986;6.014;2023-04-09T14:38:22;18.00;;;16.10;;
56161;SDS011;42045;52.986;6.014;2023-04-09T14:40:48;20.17;;;17.63;;
56161;SDS011;42045;52.986;6.014;2023-04-09T14:43:14;21.63;;;17.40;;
56161;SDS011;42045;52.986;6.014;2023-04-09T14:45:40;20.05;;;17.85;;
56161;SDS011;42045;52.986;6.014;2023-04-09T14:48:06;42.58;;;25.33;;
56161;SDS011;42045;52.986;6.014;2023-04-09T14:50:32;209.07;;;132.93;;